sensor_id;sensor_type;location;lat;lon;timestamp;P1;durP1;ratioP1;P2;durP2;ratioP2
11504;SDS011;5809;53.262;10.408;2022-12-07T00:01:05;37.23;;;23.23;;
11504;SDS011;5809;53.262;10.408;2022-12-07T00:03:33;38.23;;;22.47;;
11504;SDS011;5809;53.262;10.408;2022-12-07T00:06:00;35.77;;;21.87;;
11504;SDS011;5809;53.262;10.408;2022-12-07T00:08:28;35.57;;;22.33;;
11504;SDS011;5809;53.262;10.408;2022-12-07T00:11:00;37.20;;;22.50;;
11504;SDS011;5809;53.262;10.408;2022-12-07T00:13:29;35.10;;;22.30;;
11504;SDS011;5809;53.262;10.408;2022-12-07T00:15:59;36.93;;;23.20;;
11504;SDS011;5809;53.262;10.408;2022-12-07T00:18:28;35.87;;;21.70;;
11504;SDS011;5809;53.262;10.408;2022-12-07T00:20:58;38.30;;;22.33;;
11504;SDS011;5809;53.262;10.408;2022-12-07T00:23:26;32.70;;;21.00;;
11504;SDS011;5809;53.262;10.408;2022-12-07T00:25:54;30.37;;;20.30;;
11504;SDS011;5809;53.262;10.408;2022-12-07T00:28:21;29.90;;;19.43;;
11504;SDS011;5809;53.262;10.408;2022-12-07T00:30:48;31.53;;;19.30;;
11504;SDS011;5809;53.262;10.408;2022-12-07T00:33:15;32.93;;;20.87;;
11504;SDS011;5809;53.262;10.408;2022-12-07T00:35:44;28.13;;;19.50;;
11504;SDS011;5809;53.262;10.408;2022-12-07T00:38:10;31.50;;;20.30;;
11504;SDS011;5809;53.262;10.408;2022-12-07T00:40:38;33.10;;;20.77;;
11504;SDS011;5809;53.262;10.408;2022-12-07T00:43:05;36.00;;;22.37;;
11504;SDS011;5809;53.262;10.408;2022-12-07T00:45:32;32.67;;;20.90;;
11504;SDS011;5809;53.262;10.408;2022-12-07T00:47:59;35.90;;;20.93;;
11504;SDS011;5809;53.262;10.408;2022-12-07T00:50:26;31.30;;;20.03;;
11504;SDS011;5809;53.262;10.408;2022-12-07T00:52:54;32.97;;;20.63;;
11504;SDS011;5809;53.262;10.408;2022-12-07T00:55:21;38.40;;;21.73;;
11504;SDS011;5809;53.262;10.408;2022-12-07T00:57:48;39.17;;;20.50;;
11504;SDS011;5809;53.262;10.408;2022-12-07T01:00:15;33.33;;;20.60;;
11504;SDS011;5809;53.262;10.408;2022-12-07T01:02:42;36.20;;;20.83;;
11504;SDS011;5809;53.262;10.408;2022-12-07T01:05:09;36.80;;;21.33;;
11504;SDS011;5809;53.262;10.408;2022-12-07T01:07:36;31.83;;;20.60;;
11504;SDS011;5809;53.262;10.408;2022-12-07T01:10:06;39.27;;;20.87;;
11504;SDS011;5809;53.262;10.408;2022-12-07T01:12:33;35.30;;;19.70;;
11504;SDS011;5809;53.262;10.408;2022-12-07T01:15:00;34.63;;;19.50;;
11504;SDS011;5809;53.262;10.408;2022-12-07T01:17:27;31.27;;;19.87;;
11504;SDS011;5809;53.262;10.408;2022-12-07T01:19:54;31.53;;;18.90;;
11504;SDS011;5809;53.262;10.408;2022-12-07T01:22:21;30.80;;;18.40;;
11504;SDS011;5809;53.262;10.408;2022-12-07T01:24:49;32.67;;;18.63;;
11504;SDS011;5809;53.262;10.408;2022-12-07T01:27:17;32.50;;;18.50;;
11504;SDS011;5809;53.262;10.408;2022-12-07T01:29:44;29.90;;;19.20;;
11504;SDS011;5809;53.262;10.408;2022-12-07T01:32:11;29.10;;;18.50;;
11504;SDS011;5809;53.262;10.408;2022-12-07T01:34:38;34.93;;;19.50;;
11504;SDS011;5809;53.262;10.408;2022-12-07T01:37:05;37.17;;;19.50;;
11504;SDS011;5809;53.262;10.408;2022-12-07T01:39:32;32.30;;;19.10;;
11504;SDS011;5809;53.262;10.408;2022-12-07T01:41:59;37.07;;;20.87;;
11504;SDS011;5809;53.262;10.408;2022-12-07T01:44:29;36.10;;;20.10;;
11504;SDS011;5809;53.262;10.408;2022-12-07T01:46:58;35.47;;;19.87;;
11504;SDS011;5809;53.262;10.408;2022-12-07T01:49:28;30.23;;;19.37;;
11504;SDS011;5809;53.262;10.408;2022-12-07T01:51:58;31.73;;;20.03;;
11504;SDS011;5809;53.262;10.408;2022-12-07T01:54:33;34.43;;;20.77;;
11504;SDS011;5809;53.262;10.408;2022-12-07T01:57:02;33.10;;;20.00;;
11504;SDS011;5809;53.262;10.408;2022-12-07T01:59:32;34.33;;;19.87;;
11504;SDS011;5809;53.262;10.408;2022-12-07T02:02:00;37.27;;;21.03;;
11504;SDS011;5809;53.262;10.408;2022-12-07T02:04:30;34.13;;;19.77;;
11504;SDS011;5809;53.262;10.408;2022-12-07T02:06:58;36.17;;;20.70;;
11504;SDS011;5809;53.262;10.408;2022-12-07T02:09:25;32.87;;;20.10;;
11504;SDS011;5809;53.262;10.408;2022-12-07T02:11:52;37.93;;;20.10;;
11504;SDS011;5809;53.262;10.408;2022-12-07T02:14:21;37.37;;;20.53;;
11504;SDS011;5809;53.262;10.408;2022-12-07T02:16:54;34.57;;;19.90;;
11504;SDS011;5809;53.262;10.408;2022-12-07T02:22:30;31.87;;;17.57;;
11504;SDS011;5809;53.262;10.408;2022-12-07T02:25:20;30.37;;;17.90;;
11504;SDS011;5809;53.262;10.408;2022-12-07T02:27:56;34.10;;;18.33;;
11504;SDS011;5809;53.262;10.408;2022-12-07T02:30:30;29.23;;;16.60;;
11504;SDS011;5809;53.262;10.408;2022-12-07T02:33:00;29.70;;;17.20;;
11504;SDS011;5809;53.262;10.408;2022-12-07T02:35:32;29.33;;;17.00;;
11504;SDS011;5809;53.262;10.408;2022-12-07T02:38:07;26.43;;;16.60;;
11504;SDS011;5809;53.262;10.408;2022-12-07T02:40:41;30.67;;;17.67;;
11504;SDS011;5809;53.262;10.408;2022-12-07T02:43:14;30.17;;;17.17;;
11504;SDS011;5809;53.262;10.408;2022-12-07T02:45:45;28.87;;;16.53;;
11504;SDS011;5809;53.262;10.408;2022-12-07T02:48:14;25.60;;;16.57;;
11504;SDS011;5809;53.262;10.408;2022-12-07T02:50:44;32.67;;;17.73;;
11504;SDS011;5809;53.262;10.408;2022-12-07T02:53:30;28.00;;;15.43;;
11504;SDS011;5809;53.262;10.408;2022-12-07T02:55:59;22.10;;;14.90;;
11504;SDS011;5809;53.262;10.408;2022-12-07T02:58:32;26.40;;;15.03;;
11504;SDS011;5809;53.262;10.408;2022-12-07T03:01:15;26.33;;;14.67;;
11504;SDS011;5809;53.262;10.408;2022-12-07T03:03:53;24.03;;;13.67;;
11504;SDS011;5809;53.262;10.408;2022-12-07T03:06:26;23.93;;;14.50;;
11504;SDS011;5809;53.262;10.408;2022-12-07T03:09:01;25.57;;;14.23;;
11504;SDS011;5809;53.262;10.408;2022-12-07T03:11:39;21.47;;;12.50;;
11504;SDS011;5809;53.262;10.408;2022-12-07T03:14:12;26.43;;;12.13;;
11504;SDS011;5809;53.262;10.408;2022-12-07T03:16:45;19.97;;;12.23;;
11504;SDS011;5809;53.262;10.408;2022-12-07T03:19:18;19.27;;;11.33;;
11504;SDS011;5809;53.262;10.408;2022-12-07T03:21:51;24.30;;;11.40;;
11504;SDS011;5809;53.262;10.408;2022-12-07T03:24:24;23.27;;;10.87;;
11504;SDS011;5809;53.262;10.408;2022-12-07T03:26:55;17.10;;;11.17;;
11504;SDS011;5809;53.262;10.408;2022-12-07T03:29:28;19.20;;;11.87;;
11504;SDS011;5809;53.262;10.408;2022-12-07T03:31:59;19.77;;;11.13;;
11504;SDS011;5809;53.262;10.408;2022-12-07T03:34:31;19.53;;;10.83;;
11504;SDS011;5809;53.262;10.408;2022-12-07T03:37:03;22.23;;;10.80;;
11504;SDS011;5809;53.262;10.408;2022-12-07T03:39:33;18.53;;;10.87;;
11504;SDS011;5809;53.262;10.408;2022-12-07T03:42:04;18.13;;;10.40;;
11504;SDS011;5809;53.262;10.408;2022-12-07T03:44:33;22.37;;;9.87;;
11504;SDS011;5809;53.262;10.408;2022-12-07T03:47:04;18.60;;;9.70;;
11504;SDS011;5809;53.262;10.408;2022-12-07T03:49:36;18.30;;;9.73;;
11504;SDS011;5809;53.262;10.408;2022-12-07T03:52:09;21.57;;;9.90;;
11504;SDS011;5809;53.262;10.408;2022-12-07T03:54:44;19.93;;;10.80;;
11504;SDS011;5809;53.262;10.408;2022-12-07T03:57:15;21.90;;;10.60;;
11504;SDS011;5809;53.262;10.408;2022-12-07T03:59:43;19.83;;;9.70;;
11504;SDS011;5809;53.262;10.408;2022-12-07T04:02:13;18.27;;;10.03;;
11504;SDS011;5809;53.262;10.408;2022-12-07T04:04:40;15.13;;;9.47;;
11504;SDS011;5809;53.262;10.408;2022-12-07T04:07:09;19.90;;;10.17;;
11504;SDS011;5809;53.262;10.408;2022-12-07T04:09:37;15.37;;;9.27;;
11504;SDS011;5809;53.262;10.408;2022-12-07T04:12:05;18.63;;;9.93;;
11504;SDS011;5809;53.262;10.408;2022-12-07T04:14:32;18.50;;;9.87;;
11504;SDS011;5809;53.262;10.408;2022-12-07T04:17:00;19.47;;;9.33;;
11504;SDS011;5809;53.262;10.408;2022-12-07T04:19:29;17.57;;;8.93;;
11504;SDS011;5809;53.262;10.408;2022-12-07T04:21:57;15.57;;;8.60;;
11504;SDS011;5809;53.262;10.408;2022-12-07T04:24:25;19.57;;;10.07;;
11504;SDS011;5809;53.262;10.408;2022-12-07T04:26:52;19.17;;;9.10;;
11504;SDS011;5809;53.262;10.408;2022-12-07T04:29:19;19.33;;;9.40;;
11504;SDS011;5809;53.262;10.408;2022-12-07T04:31:47;21.00;;;9.40;;
11504;SDS011;5809;53.262;10.408;2022-12-07T04:34:15;21.37;;;9.80;;
11504;SDS011;5809;53.262;10.408;2022-12-07T04:36:44;19.27;;;9.63;;
11504;SDS011;5809;53.262;10.408;2022-12-07T04:39:13;20.87;;;9.07;;
11504;SDS011;5809;53.262;10.408;2022-12-07T04:41:45;17.30;;;9.33;;
11504;SDS011;5809;53.262;10.408;2022-12-07T04:44:13;16.13;;;8.93;;
11504;SDS011;5809;53.262;10.408;2022-12-07T04:46:41;16.43;;;9.07;;
11504;SDS011;5809;53.262;10.408;2022-12-07T04:49:08;18.37;;;8.53;;
11504;SDS011;5809;53.262;10.408;2022-12-07T04:51:36;19.40;;;8.83;;
11504;SDS011;5809;53.262;10.408;2022-12-07T04:54:04;15.13;;;7.87;;
11504;SDS011;5809;53.262;10.408;2022-12-07T04:56:31;14.17;;;8.50;;
11504;SDS011;5809;53.262;10.408;2022-12-07T04:59:00;19.90;;;8.47;;
11504;SDS011;5809;53.262;10.408;2022-12-07T05:01:27;23.37;;;8.47;;
11504;SDS011;5809;53.262;10.408;2022-12-07T05:03:54;16.30;;;7.70;;
11504;SDS011;5809;53.262;10.408;2022-12-07T05:06:21;17.33;;;7.90;;
11504;SDS011;5809;53.262;10.408;2022-12-07T05:08:48;18.93;;;8.33;;
11504;SDS011;5809;53.262;10.408;2022-12-07T05:11:17;14.00;;;7.97;;
11504;SDS011;5809;53.262;10.408;2022-12-07T05:13:58;16.03;;;7.80;;
11504;SDS011;5809;53.262;10.408;2022-12-07T05:16:25;19.43;;;7.63;;
11504;SDS011;5809;53.262;10.408;2022-12-07T05:18:52;15.03;;;6.90;;
11504;SDS011;5809;53.262;10.408;2022-12-07T05:21:19;14.43;;;7.47;;
11504;SDS011;5809;53.262;10.408;2022-12-07T05:23:46;16.07;;;7.07;;
11504;SDS011;5809;53.262;10.408;2022-12-07T05:26:14;16.03;;;7.47;;
11504;SDS011;5809;53.262;10.408;2022-12-07T05:28:42;16.37;;;7.17;;
11504;SDS011;5809;53.262;10.408;2022-12-07T05:31:09;16.30;;;7.53;;
11504;SDS011;5809;53.262;10.408;2022-12-07T05:33:36;15.30;;;7.30;;
11504;SDS011;5809;53.262;10.408;2022-12-07T05:36:04;17.67;;;7.30;;
11504;SDS011;5809;53.262;10.408;2022-12-07T05:38:32;13.43;;;6.50;;
11504;SDS011;5809;53.262;10.408;2022-12-07T05:41:00;14.27;;;6.87;;
11504;SDS011;5809;53.262;10.408;2022-12-07T05:43:27;11.83;;;6.53;;
11504;SDS011;5809;53.262;10.408;2022-12-07T05:45:55;13.93;;;6.67;;
11504;SDS011;5809;53.262;10.408;2022-12-07T05:48:22;14.77;;;6.70;;
11504;SDS011;5809;53.262;10.408;2022-12-07T05:50:49;14.60;;;6.80;;
11504;SDS011;5809;53.262;10.408;2022-12-07T05:53:17;10.83;;;6.20;;
11504;SDS011;5809;53.262;10.408;2022-12-07T05:55:44;11.10;;;5.93;;
11504;SDS011;5809;53.262;10.408;2022-12-07T05:58:11;12.87;;;5.40;;
11504;SDS011;5809;53.262;10.408;2022-12-07T06:00:57;9.73;;;5.67;;
11504;SDS011;5809;53.262;10.408;2022-12-07T06:03:24;10.63;;;5.70;;
11504;SDS011;5809;53.262;10.408;2022-12-07T06:05:51;13.60;;;5.47;;
11504;SDS011;5809;53.262;10.408;2022-12-07T06:08:19;12.20;;;5.60;;
11504;SDS011;5809;53.262;10.408;2022-12-07T06:10:47;13.83;;;5.57;;
11504;SDS011;5809;53.262;10.408;2022-12-07T06:13:35;13.40;;;5.80;;
11504;SDS011;5809;53.262;10.408;2022-12-07T06:16:03;10.47;;;5.30;;
11504;SDS011;5809;53.262;10.408;2022-12-07T06:18:30;12.57;;;5.50;;
11504;SDS011;5809;53.262;10.408;2022-12-07T06:20:57;8.70;;;4.83;;
11504;SDS011;5809;53.262;10.408;2022-12-07T06:23:24;10.87;;;5.30;;
11504;SDS011;5809;53.262;10.408;2022-12-07T06:25:51;7.83;;;5.57;;
11504;SDS011;5809;53.262;10.408;2022-12-07T06:28:18;10.87;;;5.53;;
11504;SDS011;5809;53.262;10.408;2022-12-07T06:30:45;8.40;;;5.30;;
11504;SDS011;5809;53.262;10.408;2022-12-07T06:33:14;8.97;;;5.17;;
11504;SDS011;5809;53.262;10.408;2022-12-07T06:35:41;7.57;;;5.00;;
11504;SDS011;5809;53.262;10.408;2022-12-07T06:38:08;12.60;;;5.97;;
11504;SDS011;5809;53.262;10.408;2022-12-07T06:40:35;11.43;;;5.70;;
11504;SDS011;5809;53.262;10.408;2022-12-07T06:43:02;14.97;;;6.30;;
11504;SDS011;5809;53.262;10.408;2022-12-07T06:45:29;12.37;;;6.17;;
11504;SDS011;5809;53.262;10.408;2022-12-07T06:47:56;13.23;;;6.20;;
11504;SDS011;5809;53.262;10.408;2022-12-07T06:50:24;12.10;;;6.27;;
11504;SDS011;5809;53.262;10.408;2022-12-07T06:52:51;15.97;;;5.93;;
11504;SDS011;5809;53.262;10.408;2022-12-07T06:55:19;13.30;;;6.10;;
11504;SDS011;5809;53.262;10.408;2022-12-07T06:57:46;14.73;;;6.30;;
11504;SDS011;5809;53.262;10.408;2022-12-07T07:00:13;16.40;;;6.10;;
11504;SDS011;5809;53.262;10.408;2022-12-07T07:02:41;10.90;;;6.03;;
11504;SDS011;5809;53.262;10.408;2022-12-07T07:05:08;15.13;;;6.07;;
11504;SDS011;5809;53.262;10.408;2022-12-07T07:07:36;11.93;;;5.80;;
11504;SDS011;5809;53.262;10.408;2022-12-07T07:10:04;13.63;;;5.60;;
11504;SDS011;5809;53.262;10.408;2022-12-07T07:12:31;11.50;;;5.27;;
11504;SDS011;5809;53.262;10.408;2022-12-07T07:14:59;12.60;;;4.97;;
11504;SDS011;5809;53.262;10.408;2022-12-07T07:17:25;17.03;;;5.10;;
11504;SDS011;5809;53.262;10.408;2022-12-07T07:19:53;11.20;;;5.03;;
11504;SDS011;5809;53.262;10.408;2022-12-07T07:22:20;8.50;;;4.77;;
11504;SDS011;5809;53.262;10.408;2022-12-07T07:24:48;8.13;;;4.60;;
11504;SDS011;5809;53.262;10.408;2022-12-07T07:27:15;12.57;;;4.50;;
11504;SDS011;5809;53.262;10.408;2022-12-07T07:29:42;6.40;;;4.10;;
11504;SDS011;5809;53.262;10.408;2022-12-07T07:32:09;10.50;;;4.57;;
11504;SDS011;5809;53.262;10.408;2022-12-07T07:34:37;8.63;;;4.30;;
11504;SDS011;5809;53.262;10.408;2022-12-07T07:37:04;10.73;;;4.67;;
11504;SDS011;5809;53.262;10.408;2022-12-07T07:39:31;8.20;;;4.57;;
11504;SDS011;5809;53.262;10.408;2022-12-07T07:41:59;10.43;;;4.60;;
11504;SDS011;5809;53.262;10.408;2022-12-07T07:44:26;6.43;;;4.00;;
11504;SDS011;5809;53.262;10.408;2022-12-07T07:46:53;10.47;;;4.60;;
11504;SDS011;5809;53.262;10.408;2022-12-07T07:49:20;10.57;;;4.67;;
11504;SDS011;5809;53.262;10.408;2022-12-07T07:51:47;9.33;;;4.73;;
11504;SDS011;5809;53.262;10.408;2022-12-07T07:54:14;49.53;;;33.47;;
11504;SDS011;5809;53.262;10.408;2022-12-07T07:56:41;10.07;;;6.10;;
11504;SDS011;5809;53.262;10.408;2022-12-07T07:59:10;14.23;;;5.17;;
11504;SDS011;5809;53.262;10.408;2022-12-07T08:01:36;14.07;;;8.43;;
11504;SDS011;5809;53.262;10.408;2022-12-07T08:04:03;29.63;;;19.80;;
11504;SDS011;5809;53.262;10.408;2022-12-07T08:06:30;17.33;;;10.30;;
11504;SDS011;5809;53.262;10.408;2022-12-07T08:08:57;17.07;;;9.83;;
11504;SDS011;5809;53.262;10.408;2022-12-07T08:11:24;9.10;;;4.47;;
11504;SDS011;5809;53.262;10.408;2022-12-07T08:13:52;5.33;;;3.80;;
11504;SDS011;5809;53.262;10.408;2022-12-07T08:16:20;6.63;;;3.90;;
11504;SDS011;5809;53.262;10.408;2022-12-07T08:18:47;5.13;;;3.57;;
11504;SDS011;5809;53.262;10.408;2022-12-07T08:21:14;6.53;;;3.47;;
11504;SDS011;5809;53.262;10.408;2022-12-07T08:23:41;6.63;;;3.57;;
11504;SDS011;5809;53.262;10.408;2022-12-07T08:26:09;7.90;;;3.63;;
11504;SDS011;5809;53.262;10.408;2022-12-07T08:28:37;7.67;;;3.97;;
11504;SDS011;5809;53.262;10.408;2022-12-07T08:31:05;8.73;;;3.67;;
11504;SDS011;5809;53.262;10.408;2022-12-07T08:33:35;7.23;;;3.83;;
11504;SDS011;5809;53.262;10.408;2022-12-07T08:36:02;5.80;;;3.43;;
11504;SDS011;5809;53.262;10.408;2022-12-07T08:38:31;4.47;;;2.90;;
11504;SDS011;5809;53.262;10.408;2022-12-07T08:40:58;8.13;;;3.40;;
11504;SDS011;5809;53.262;10.408;2022-12-07T08:43:25;6.97;;;3.77;;
11504;SDS011;5809;53.262;10.408;2022-12-07T08:45:53;6.83;;;3.50;;
11504;SDS011;5809;53.262;10.408;2022-12-07T08:48:29;7.33;;;3.37;;
11504;SDS011;5809;53.262;10.408;2022-12-07T08:51:00;7.90;;;3.23;;
11504;SDS011;5809;53.262;10.408;2022-12-07T08:53:28;10.37;;;3.53;;
11504;SDS011;5809;53.262;10.408;2022-12-07T08:55:55;7.37;;;3.57;;
11504;SDS011;5809;53.262;10.408;2022-12-07T08:58:23;7.03;;;3.20;;
11504;SDS011;5809;53.262;10.408;2022-12-07T09:00:50;15.27;;;9.37;;
11504;SDS011;5809;53.262;10.408;2022-12-07T09:03:17;11.73;;;6.53;;
11504;SDS011;5809;53.262;10.408;2022-12-07T09:05:44;5.73;;;3.10;;
11504;SDS011;5809;53.262;10.408;2022-12-07T09:08:12;5.30;;;3.00;;
11504;SDS011;5809;53.262;10.408;2022-12-07T09:10:39;7.00;;;2.80;;
11504;SDS011;5809;53.262;10.408;2022-12-07T09:13:07;26.47;;;19.40;;
11504;SDS011;5809;53.262;10.408;2022-12-07T09:15:34;7.37;;;4.07;;
11504;SDS011;5809;53.262;10.408;2022-12-07T09:18:01;9.47;;;6.67;;
11504;SDS011;5809;53.262;10.408;2022-12-07T09:20:28;4.57;;;2.60;;
11504;SDS011;5809;53.262;10.408;2022-12-07T09:22:55;5.93;;;2.20;;
11504;SDS011;5809;53.262;10.408;2022-12-07T09:25:24;6.43;;;2.03;;
11504;SDS011;5809;53.262;10.408;2022-12-07T09:27:54;7.87;;;1.93;;
11504;SDS011;5809;53.262;10.408;2022-12-07T09:30:22;8.07;;;3.27;;
11504;SDS011;5809;53.262;10.408;2022-12-07T09:32:49;7.63;;;5.73;;
11504;SDS011;5809;53.262;10.408;2022-12-07T09:35:16;4.43;;;2.30;;
11504;SDS011;5809;53.262;10.408;2022-12-07T09:37:43;5.93;;;1.80;;
11504;SDS011;5809;53.262;10.408;2022-12-07T09:40:11;4.90;;;1.87;;
11504;SDS011;5809;53.262;10.408;2022-12-07T09:42:41;5.13;;;1.77;;
11504;SDS011;5809;53.262;10.408;2022-12-07T09:45:11;4.30;;;1.60;;
11504;SDS011;5809;53.262;10.408;2022-12-07T09:47:41;5.77;;;1.90;;
11504;SDS011;5809;53.262;10.408;2022-12-07T09:50:12;3.43;;;1.53;;
11504;SDS011;5809;53.262;10.408;2022-12-07T09:52:42;3.30;;;1.70;;
11504;SDS011;5809;53.262;10.408;2022-12-07T09:55:13;3.57;;;1.70;;
11504;SDS011;5809;53.262;10.408;2022-12-07T09:57:43;6.87;;;2.00;;
11504;SDS011;5809;53.262;10.408;2022-12-07T10:00:11;5.37;;;1.63;;
11504;SDS011;5809;53.262;10.408;2022-12-07T10:02:41;2.73;;;1.60;;
11504;SDS011;5809;53.262;10.408;2022-12-07T10:05:12;7.87;;;1.70;;
11504;SDS011;5809;53.262;10.408;2022-12-07T10:07:41;7.60;;;1.63;;
11504;SDS011;5809;53.262;10.408;2022-12-07T10:10:13;3.17;;;1.63;;
11504;SDS011;5809;53.262;10.408;2022-12-07T10:15:42;8.67;;;1.93;;
11504;SDS011;5809;53.262;10.408;2022-12-07T10:18:18;4.43;;;1.53;;
11504;SDS011;5809;53.262;10.408;2022-12-07T10:20:46;4.73;;;2.00;;
11504;SDS011;5809;53.262;10.408;2022-12-07T10:23:14;3.33;;;1.50;;
11504;SDS011;5809;53.262;10.408;2022-12-07T10:25:43;6.33;;;2.03;;
11504;SDS011;5809;53.262;10.408;2022-12-07T10:28:14;6.37;;;2.13;;
11504;SDS011;5809;53.262;10.408;2022-12-07T10:30:46;7.57;;;1.67;;
11504;SDS011;5809;53.262;10.408;2022-12-07T10:33:32;3.17;;;1.30;;
11504;SDS011;5809;53.262;10.408;2022-12-07T10:36:09;3.80;;;1.70;;
11504;SDS011;5809;53.262;10.408;2022-12-07T10:38:45;2.67;;;1.30;;
11504;SDS011;5809;53.262;10.408;2022-12-07T10:41:13;5.60;;;1.30;;
11504;SDS011;5809;53.262;10.408;2022-12-07T10:43:47;4.60;;;1.37;;
11504;SDS011;5809;53.262;10.408;2022-12-07T10:46:23;3.40;;;1.23;;
11504;SDS011;5809;53.262;10.408;2022-12-07T10:49:15;3.50;;;1.30;;
11504;SDS011;5809;53.262;10.408;2022-12-07T10:51:56;10.53;;;4.53;;
11504;SDS011;5809;53.262;10.408;2022-12-07T10:54:34;11.77;;;7.83;;
11504;SDS011;5809;53.262;10.408;2022-12-07T10:57:11;6.27;;;2.17;;
11504;SDS011;5809;53.262;10.408;2022-12-07T10:59:55;6.50;;;2.90;;
11504;SDS011;5809;53.262;10.408;2022-12-07T11:02:52;6.90;;;2.60;;
11504;SDS011;5809;53.262;10.408;2022-12-07T11:05:39;1.67;;;0.80;;
11504;SDS011;5809;53.262;10.408;2022-12-07T11:08:13;6.00;;;1.30;;
11504;SDS011;5809;53.262;10.408;2022-12-07T11:10:48;2.17;;;0.90;;
11504;SDS011;5809;53.262;10.408;2022-12-07T11:13:27;6.63;;;3.30;;
11504;SDS011;5809;53.262;10.408;2022-12-07T11:16:04;3.50;;;0.90;;
11504;SDS011;5809;53.262;10.408;2022-12-07T11:18:42;3.40;;;1.03;;
11504;SDS011;5809;53.262;10.408;2022-12-07T11:21:17;3.83;;;1.10;;
11504;SDS011;5809;53.262;10.408;2022-12-07T11:23:52;3.73;;;1.30;;
11504;SDS011;5809;53.262;10.408;2022-12-07T11:26:31;3.53;;;1.30;;
11504;SDS011;5809;53.262;10.408;2022-12-07T11:29:14;3.70;;;0.83;;
11504;SDS011;5809;53.262;10.408;2022-12-07T11:32:11;2.63;;;0.93;;
11504;SDS011;5809;53.262;10.408;2022-12-07T11:34:46;5.50;;;1.00;;
11504;SDS011;5809;53.262;10.408;2022-12-07T11:37:24;4.17;;;1.07;;
11504;SDS011;5809;53.262;10.408;2022-12-07T11:40:00;2.83;;;0.70;;
11504;SDS011;5809;53.262;10.408;2022-12-07T11:42:33;2.70;;;1.07;;
11504;SDS011;5809;53.262;10.408;2022-12-07T11:45:10;2.70;;;0.93;;
11504;SDS011;5809;53.262;10.408;2022-12-07T11:47:44;2.13;;;1.00;;
11504;SDS011;5809;53.262;10.408;2022-12-07T11:50:25;3.63;;;1.17;;
11504;SDS011;5809;53.262;10.408;2022-12-07T11:52:56;3.97;;;1.40;;
11504;SDS011;5809;53.262;10.408;2022-12-07T11:55:29;5.20;;;1.10;;
11504;SDS011;5809;53.262;10.408;2022-12-07T11:58:04;3.93;;;1.20;;
11504;SDS011;5809;53.262;10.408;2022-12-07T12:00:45;4.20;;;1.07;;
11504;SDS011;5809;53.262;10.408;2022-12-07T12:03:15;4.40;;;1.20;;
11504;SDS011;5809;53.262;10.408;2022-12-07T12:05:46;3.17;;;1.13;;
11504;SDS011;5809;53.262;10.408;2022-12-07T12:08:15;4.53;;;1.53;;
11504;SDS011;5809;53.262;10.408;2022-12-07T12:10:49;4.00;;;1.00;;
11504;SDS011;5809;53.262;10.408;2022-12-07T12:13:32;6.00;;;1.53;;
11504;SDS011;5809;53.262;10.408;2022-12-07T12:16:17;3.07;;;1.43;;
11504;SDS011;5809;53.262;10.408;2022-12-07T12:19:04;14.23;;;6.37;;
11504;SDS011;5809;53.262;10.408;2022-12-07T12:21:44;9.30;;;2.23;;
11504;SDS011;5809;53.262;10.408;2022-12-07T12:24:14;6.13;;;2.57;;
11504;SDS011;5809;53.262;10.408;2022-12-07T12:26:48;3.77;;;1.40;;
11504;SDS011;5809;53.262;10.408;2022-12-07T12:29:21;7.63;;;1.60;;
11504;SDS011;5809;53.262;10.408;2022-12-07T12:32:07;7.97;;;1.40;;
11504;SDS011;5809;53.262;10.408;2022-12-07T12:34:56;5.63;;;1.40;;
11504;SDS011;5809;53.262;10.408;2022-12-07T12:37:44;13.30;;;9.13;;
11504;SDS011;5809;53.262;10.408;2022-12-07T12:55:54;3.53;;;1.17;;
11504;SDS011;5809;53.262;10.408;2022-12-07T12:58:46;4.23;;;1.50;;
11504;SDS011;5809;53.262;10.408;2022-12-07T13:04:18;8.63;;;1.50;;
11504;SDS011;5809;53.262;10.408;2022-12-07T13:06:54;5.93;;;1.37;;
11504;SDS011;5809;53.262;10.408;2022-12-07T13:09:23;5.13;;;1.77;;
11504;SDS011;5809;53.262;10.408;2022-12-07T13:11:55;7.90;;;1.83;;
11504;SDS011;5809;53.262;10.408;2022-12-07T13:20:49;5.87;;;1.50;;
11504;SDS011;5809;53.262;10.408;2022-12-07T13:23:31;7.30;;;1.70;;
11504;SDS011;5809;53.262;10.408;2022-12-07T13:26:06;3.50;;;1.47;;
11504;SDS011;5809;53.262;10.408;2022-12-07T13:28:41;7.23;;;1.20;;
11504;SDS011;5809;53.262;10.408;2022-12-07T13:31:11;7.93;;;1.60;;
11504;SDS011;5809;53.262;10.408;2022-12-07T13:33:50;5.77;;;1.60;;
11504;SDS011;5809;53.262;10.408;2022-12-07T13:36:19;5.93;;;1.43;;
11504;SDS011;5809;53.262;10.408;2022-12-07T13:38:50;37.57;;;19.57;;
11504;SDS011;5809;53.262;10.408;2022-12-07T13:41:20;8.80;;;2.00;;
11504;SDS011;5809;53.262;10.408;2022-12-07T13:43:49;3.63;;;1.17;;
11504;SDS011;5809;53.262;10.408;2022-12-07T13:46:20;5.23;;;1.70;;
11504;SDS011;5809;53.262;10.408;2022-12-07T13:48:53;6.97;;;1.40;;
11504;SDS011;5809;53.262;10.408;2022-12-07T13:51:22;7.47;;;1.43;;
11504;SDS011;5809;53.262;10.408;2022-12-07T13:53:52;4.50;;;1.20;;
11504;SDS011;5809;53.262;10.408;2022-12-07T13:56:21;5.80;;;1.60;;
11504;SDS011;5809;53.262;10.408;2022-12-07T13:59:00;8.47;;;1.60;;
11504;SDS011;5809;53.262;10.408;2022-12-07T14:01:28;6.77;;;1.80;;
11504;SDS011;5809;53.262;10.408;2022-12-07T14:06:53;4.70;;;1.30;;
11504;SDS011;5809;53.262;10.408;2022-12-07T14:09:23;4.17;;;1.73;;
11504;SDS011;5809;53.262;10.408;2022-12-07T14:11:52;5.87;;;1.57;;
11504;SDS011;5809;53.262;10.408;2022-12-07T14:14:21;6.17;;;1.10;;
11504;SDS011;5809;53.262;10.408;2022-12-07T14:16:59;8.33;;;1.83;;
11504;SDS011;5809;53.262;10.408;2022-12-07T14:19:41;4.17;;;1.53;;
11504;SDS011;5809;53.262;10.408;2022-12-07T14:22:18;7.73;;;1.50;;
11504;SDS011;5809;53.262;10.408;2022-12-07T14:24:57;5.43;;;1.63;;
11504;SDS011;5809;53.262;10.408;2022-12-07T14:27:30;5.43;;;1.97;;
11504;SDS011;5809;53.262;10.408;2022-12-07T14:29:59;7.57;;;1.70;;
11504;SDS011;5809;53.262;10.408;2022-12-07T14:32:27;5.90;;;1.20;;
11504;SDS011;5809;53.262;10.408;2022-12-07T14:34:56;6.07;;;1.50;;
11504;SDS011;5809;53.262;10.408;2022-12-07T14:37:25;8.00;;;1.80;;
11504;SDS011;5809;53.262;10.408;2022-12-07T14:39:53;6.77;;;1.40;;
11504;SDS011;5809;53.262;10.408;2022-12-07T14:42:20;7.03;;;1.97;;
11504;SDS011;5809;53.262;10.408;2022-12-07T14:44:51;9.17;;;1.80;;
11504;SDS011;5809;53.262;10.408;2022-12-07T14:47:18;8.50;;;1.60;;
11504;SDS011;5809;53.262;10.408;2022-12-07T14:49:45;4.77;;;1.50;;
11504;SDS011;5809;53.262;10.408;2022-12-07T14:52:13;6.00;;;1.40;;
11504;SDS011;5809;53.262;10.408;2022-12-07T14:54:43;4.40;;;1.40;;
11504;SDS011;5809;53.262;10.408;2022-12-07T14:57:12;7.00;;;1.50;;
11504;SDS011;5809;53.262;10.408;2022-12-07T14:59:39;7.90;;;1.57;;
11504;SDS011;5809;53.262;10.408;2022-12-07T15:02:06;6.50;;;1.50;;
11504;SDS011;5809;53.262;10.408;2022-12-07T15:04:36;6.23;;;1.30;;
11504;SDS011;5809;53.262;10.408;2022-12-07T15:07:04;8.73;;;1.50;;
11504;SDS011;5809;53.262;10.408;2022-12-07T15:09:35;6.30;;;1.93;;
11504;SDS011;5809;53.262;10.408;2022-12-07T15:12:02;8.00;;;2.00;;
11504;SDS011;5809;53.262;10.408;2022-12-07T15:14:31;6.40;;;1.90;;
11504;SDS011;5809;53.262;10.408;2022-12-07T15:16:58;11.23;;;1.57;;
11504;SDS011;5809;53.262;10.408;2022-12-07T15:19:24;6.77;;;1.87;;
11504;SDS011;5809;53.262;10.408;2022-12-07T15:21:52;7.57;;;1.33;;
11504;SDS011;5809;53.262;10.408;2022-12-07T15:24:19;5.50;;;1.70;;
11504;SDS011;5809;53.262;10.408;2022-12-07T15:26:49;7.27;;;1.63;;
11504;SDS011;5809;53.262;10.408;2022-12-07T15:29:16;6.43;;;1.20;;